createdAt,value
2023-04-02T00:00:37.534Z,100.00
2023-04-02T00:03:08.671Z,100.00
2023-04-02T00:05:51.723Z,100.00
2023-04-02T00:08:38.955Z,100.00
2023-04-02T00:11:06.810Z,100.00
2023-04-02T00:13:41.199Z,100.00
2023-04-02T00:16:12.843Z,100.00
2023-04-02T00:18:45.587Z,100.00
2023-04-02T00:21:23.951Z,100.00
2023-04-02T00:23:50.690Z,100.00
2023-04-02T00:26:42.892Z,100.00
2023-04-02T00:29:11.567Z,100.00
2023-04-02T00:31:41.016Z,100.00
2023-04-02T00:34:13.850Z,100.00
2023-04-02T00:36:44.051Z,100.00
2023-04-02T00:39:28.464Z,100.00
2023-04-02T00:42:06.471Z,100.00
2023-04-02T00:44:37.861Z,100.00
2023-04-02T00:47:14.981Z,100.00
2023-04-02T00:49:41.970Z,100.00
2023-04-02T00:52:15.063Z,100.00
2023-04-02T00:54:48.124Z,100.00
2023-04-02T00:57:20.244Z,100.00
2023-04-02T01:00:24.071Z,100.00
2023-04-02T01:03:13.026Z,100.00
2023-04-02T01:05:42.526Z,100.00
2023-04-02T01:08:22.328Z,100.00
2023-04-02T01:11:13.595Z,100.00
2023-04-02T01:13:53.449Z,100.00
2023-04-02T01:16:46.268Z,100.00
2023-04-02T01:19:35.565Z,100.00
2023-04-02T01:22:20.613Z,100.00
2023-04-02T01:24:47.825Z,100.00
2023-04-02T01:27:23.384Z,100.00
2023-04-02T01:29:57.721Z,100.00
2023-04-02T01:32:27.143Z,100.00
2023-04-02T01:34:55.811Z,100.00
2023-04-02T01:37:44.808Z,100.00
2023-04-02T01:40:49.531Z,100.00
2023-04-02T01:43:52.879Z,100.00
2023-04-02T01:46:34.484Z,100.00
2023-04-02T01:49:10.287Z,100.00
2023-04-02T01:51:41.871Z,100.00
2023-04-02T01:54:08.949Z,100.00
2023-04-02T01:56:36.099Z,100.00
2023-04-02T01:59:05.787Z,100.00
2023-04-02T02:01:43.397Z,100.00
2023-04-02T02:04:14.441Z,100.00
2023-04-02T02:06:41.767Z,100.00
2023-04-02T02:09:17.782Z,100.00
2023-04-02T02:11:44.217Z,100.00
2023-04-02T02:14:25.085Z,100.00
2023-04-02T02:16:56.596Z,100.00
2023-04-02T02:19:32.798Z,100.00
2023-04-02T02:22:29.633Z,100.00
2023-04-02T02:24:59.279Z,100.00
2023-04-02T02:27:26.024Z,100.00
2023-04-02T02:30:00.447Z,100.00
2023-04-02T02:32:30.901Z,100.00
2023-04-02T02:35:21.326Z,100.00
2023-04-02T02:37:55.240Z,100.00
2023-04-02T02:40:29.558Z,100.00
2023-04-02T02:43:00.713Z,100.00
2023-04-02T02:45:31.270Z,100.00
2023-04-02T02:47:59.413Z,100.00
2023-04-02T02:50:31.669Z,100.00
2023-04-02T02:53:00.894Z,100.00
2023-04-02T02:55:39.127Z,100.00
2023-04-02T02:58:15.878Z,100.00
2023-04-02T03:00:42.701Z,100.00
2023-04-02T03:03:18.010Z,100.00
2023-04-02T03:05:49.806Z,100.00
2023-04-02T03:08:40.321Z,100.00
2023-04-02T03:11:23.078Z,100.00
2023-04-02T03:13:52.341Z,100.00
2023-04-02T03:16:28.428Z,100.00
2023-04-02T03:19:20.565Z,100.00
2023-04-02T03:22:03.273Z,100.00
2023-04-02T03:24:39.687Z,100.00
2023-04-02T03:27:09.125Z,100.00
2023-04-02T03:29:41.407Z,100.00
2023-04-02T03:32:16.708Z,100.00
2023-04-02T03:34:51.294Z,100.00
2023-04-02T03:37:42.392Z,100.00
2023-04-02T03:40:22.532Z,100.00
2023-04-02T03:42:53.447Z,100.00
2023-04-02T03:45:29.637Z,100.00
2023-04-02T03:48:18.038Z,100.00
2023-04-02T03:50:52.143Z,100.00
2023-04-02T03:53:18.804Z,100.00
2023-04-02T03:55:45.552Z,100.00
2023-04-02T03:58:21.957Z,100.00
2023-04-02T04:01:03.175Z,100.00
2023-04-02T04:03:38.169Z,100.00
2023-04-02T04:06:34.821Z,100.00
2023-04-02T04:09:11.480Z,100.00
2023-04-02T04:11:45.622Z,100.00
2023-04-02T04:14:20.441Z,100.00
2023-04-02T04:16:53.494Z,100.00
2023-04-02T04:19:32.611Z,100.00
2023-04-02T04:22:19.126Z,100.00
2023-04-02T04:24:47.792Z,100.00
2023-04-02T04:27:46.402Z,100.00
2023-04-02T04:30:24.658Z,100.00
2023-04-02T04:32:58.768Z,100.00
2023-04-02T04:35:31.145Z,100.00
2023-04-02T04:38:27.807Z,100.00
2023-04-02T04:41:01.982Z,100.00
2023-04-02T04:43:40.588Z,100.00
2023-04-02T04:46:12.517Z,100.00
2023-04-02T04:48:48.888Z,100.00
2023-04-02T04:51:45.223Z,100.00
2023-04-02T04:54:14.178Z,100.00
2023-04-02T04:56:47.319Z,100.00
2023-04-02T04:59:21.934Z,100.00
2023-04-02T05:02:12.823Z,100.00
2023-04-02T05:04:48.262Z,100.00
2023-04-02T05:07:23.025Z,100.00
2023-04-02T05:10:01.292Z,100.00
2023-04-02T05:12:42.206Z,100.00
2023-04-02T05:15:27.549Z,100.00
2023-04-02T05:17:59.583Z,100.00
2023-04-02T05:20:34.943Z,100.00
2023-04-02T05:23:15.354Z,100.00
2023-04-02T05:26:11.429Z,100.00
2023-04-02T05:28:40.837Z,100.00
2023-04-02T05:31:12.490Z,100.00
2023-04-02T05:33:40.055Z,100.00
2023-04-02T05:36:18.308Z,100.00
2023-04-02T05:38:47.597Z,100.00
2023-04-02T05:41:27.371Z,100.00
2023-04-02T05:44:09.099Z,100.00
2023-04-02T05:46:45.731Z,100.00
2023-04-02T05:49:26.042Z,100.00
2023-04-02T05:51:57.606Z,100.00
2023-04-02T05:54:31.137Z,100.00
2023-04-02T05:57:07.451Z,100.00
2023-04-02T05:59:38.930Z,100.00
2023-04-02T06:02:27.805Z,100.00
2023-04-02T06:04:59.751Z,100.00
2023-04-02T06:07:32.148Z,100.00
2023-04-02T06:10:15.401Z,100.00
2023-04-02T06:12:51.386Z,100.00
2023-04-02T06:15:23.620Z,100.00
2023-04-02T06:18:06.337Z,100.00
2023-04-02T06:20:33.015Z,100.00
2023-04-02T06:23:11.595Z,100.00
2023-04-02T06:26:03.454Z,100.00
2023-04-02T06:28:47.861Z,100.00
2023-04-02T06:31:26.018Z,100.00
2023-04-02T06:33:55.042Z,100.00
2023-04-02T06:36:23.951Z,100.00
2023-04-02T06:38:52.127Z,100.00
2023-04-02T06:41:23.527Z,100.00
2023-04-02T06:44:02.030Z,100.00
2023-04-02T06:46:36.173Z,100.00
2023-04-02T06:49:13.095Z,100.00
2023-04-02T06:51:40.912Z,100.00
2023-04-02T06:54:14.296Z,100.00
2023-04-02T06:56:48.142Z,100.00
2023-04-02T06:59:16.361Z,100.00
2023-04-02T07:02:00.158Z,100.00
2023-04-02T07:04:27.756Z,100.00
2023-04-02T07:06:54.239Z,100.00
2023-04-02T07:09:28.001Z,100.00
2023-04-02T07:11:54.398Z,100.00
2023-04-02T07:14:20.920Z,100.00
2023-04-02T07:16:47.447Z,100.00
2023-04-02T07:19:22.789Z,100.00
2023-04-02T07:21:49.369Z,100.00
2023-04-02T07:24:15.940Z,100.00
2023-04-02T07:26:42.903Z,100.00
2023-04-02T07:29:14.728Z,100.00
2023-04-02T07:31:41.315Z,100.00
2023-04-02T07:34:08.114Z,100.00
2023-04-02T07:36:35.402Z,100.00
2023-04-02T07:39:02.267Z,100.00
2023-04-02T07:41:28.767Z,100.00
2023-04-02T07:43:55.419Z,100.00
2023-04-02T07:46:22.337Z,100.00
2023-04-02T07:48:48.829Z,100.00
2023-04-02T07:51:23.051Z,100.00
2023-04-02T07:53:51.047Z,100.00
2023-04-02T07:56:19.862Z,100.00
2023-04-02T07:58:46.792Z,100.00
2023-04-02T08:01:25.695Z,100.00
2023-04-02T08:03:54.662Z,100.00
2023-04-02T08:06:22.503Z,100.00
2023-04-02T08:08:49.216Z,100.00
2023-04-02T08:11:16.008Z,100.00
2023-04-02T08:13:42.970Z,100.00
2023-04-02T08:16:09.692Z,100.00
2023-04-02T08:18:36.592Z,100.00
2023-04-02T08:21:06.740Z,100.00
2023-04-02T08:23:33.319Z,100.00
2023-04-02T08:25:59.833Z,100.00
2023-04-02T08:28:26.415Z,100.00
2023-04-02T08:30:53.165Z,100.00
2023-04-02T08:33:19.880Z,100.00
2023-04-02T08:35:48.205Z,100.00
2023-04-02T08:38:16.163Z,100.00
2023-04-02T08:40:45.563Z,100.00
2023-04-02T08:43:14.971Z,100.00
2023-04-02T08:46:08.528Z,100.00
2023-04-02T08:48:40.214Z,100.00
2023-04-02T08:51:15.001Z,100.00
2023-04-02T08:53:42.159Z,100.00
2023-04-02T08:56:17.729Z,100.00
2023-04-02T08:58:51.188Z,100.00
2023-04-02T09:01:34.463Z,100.00
2023-04-02T09:04:05.576Z,99.99
2023-04-02T09:06:33.432Z,100.00
2023-04-02T09:09:00.296Z,100.00
2023-04-02T09:11:41.196Z,99.64
2023-04-02T09:14:17.966Z,99.42
2023-04-02T09:16:49.423Z,99.39
2023-04-02T09:19:20.006Z,99.34
2023-04-02T09:21:56.952Z,98.42
2023-04-02T09:24:23.346Z,98.20
2023-04-02T09:26:49.796Z,98.04
2023-04-02T09:29:31.339Z,98.30
2023-04-02T09:32:25.603Z,97.53
2023-04-02T09:35:18.357Z,97.59
2023-04-02T09:38:12.602Z,96.96
2023-04-02T09:41:06.882Z,96.06
2023-04-02T09:43:35.770Z,95.74
2023-04-02T09:46:21.282Z,95.55
2023-04-02T09:49:01.224Z,95.70
2023-04-02T09:51:36.496Z,95.68
2023-04-02T09:54:03.077Z,95.40
2023-04-02T09:56:40.434Z,95.53
2023-04-02T09:59:06.709Z,95.82
2023-04-02T10:01:39.403Z,96.04
2023-04-02T10:04:26.959Z,95.28
2023-04-02T10:06:57.857Z,95.16
2023-04-02T10:09:33.260Z,94.42
2023-04-02T10:12:02.253Z,92.91
2023-04-02T10:14:39.682Z,90.73
2023-04-02T10:17:27.824Z,91.12
2023-04-02T10:19:58.721Z,89.87
2023-04-02T10:22:28.522Z,88.83
2023-04-02T10:24:54.982Z,87.39
2023-04-02T10:27:29.785Z,87.05
2023-04-02T10:30:15.301Z,85.27
2023-04-02T10:32:56.313Z,84.13
2023-04-02T10:35:48.140Z,82.12
2023-04-02T10:38:20.461Z,81.01
2023-04-02T10:41:11.605Z,79.98
2023-04-02T10:44:18.950Z,80.35
2023-04-02T10:47:02.005Z,79.25
2023-04-02T10:49:50.679Z,78.82
2023-04-02T10:52:26.590Z,76.78
2023-04-02T10:54:57.137Z,75.79
2023-04-02T10:57:38.108Z,74.91
2023-04-02T11:00:11.033Z,73.64
2023-04-02T11:02:56.257Z,71.60
2023-04-02T11:05:31.391Z,73.18
2023-04-02T11:08:07.370Z,72.52
2023-04-02T11:10:38.559Z,71.53
2023-04-02T11:13:28.395Z,72.97
2023-04-02T11:15:55.051Z,72.57
2023-04-02T11:18:39.932Z,71.62
2023-04-02T11:21:08.577Z,69.34
2023-04-02T11:23:39.606Z,68.63
2023-04-02T11:26:27.784Z,68.04
2023-04-02T11:29:18.978Z,69.86
2023-04-02T11:31:46.313Z,67.48
2023-04-02T11:34:14.831Z,68.51
2023-04-02T11:36:50.209Z,67.61
2023-04-02T11:39:46.487Z,66.73
2023-04-02T11:42:18.733Z,64.86
2023-04-02T11:44:45.325Z,66.00
2023-04-02T11:47:19.787Z,66.03
2023-04-02T11:49:55.451Z,64.92
2023-04-02T11:52:25.497Z,66.55
2023-04-02T11:55:05.726Z,66.64
2023-04-02T11:57:44.190Z,66.77
2023-04-02T12:00:44.482Z,64.88
2023-04-02T12:03:13.974Z,62.34
2023-04-02T12:05:48.614Z,64.34
2023-04-02T12:08:27.666Z,63.27
2023-04-02T12:10:58.035Z,61.69
2023-04-02T12:13:39.813Z,62.18
2023-04-02T12:16:16.805Z,61.98
2023-04-02T12:18:53.944Z,60.68
2023-04-02T12:21:24.510Z,60.08
2023-04-02T12:23:54.452Z,60.38
2023-04-02T12:26:30.089Z,60.41
2023-04-02T12:29:26.581Z,60.14
2023-04-02T12:31:58.396Z,58.83
2023-04-02T12:34:27.902Z,60.14
2023-04-02T12:37:03.499Z,59.22
2023-04-02T12:39:34.407Z,58.80
2023-04-02T12:42:01.596Z,59.44
2023-04-02T12:44:30.322Z,58.07
2023-04-02T12:46:58.655Z,59.64
2023-04-02T12:49:31.158Z,59.33
2023-04-02T12:51:58.232Z,58.62
2023-04-02T12:54:24.860Z,58.13
2023-04-02T12:56:51.384Z,56.55
2023-04-02T12:59:28.794Z,56.65
2023-04-02T13:02:00.859Z,55.08
2023-04-02T13:04:28.259Z,55.74
2023-04-02T13:06:55.928Z,56.60
2023-04-02T13:09:29.972Z,56.85
2023-04-02T13:11:56.501Z,56.98
2023-04-02T13:14:25.061Z,56.81
2023-04-02T13:16:51.583Z,57.13
2023-04-02T13:19:18.049Z,56.40
2023-04-02T13:21:45.885Z,55.30
2023-04-02T13:24:27.724Z,55.45
2023-04-02T13:26:57.491Z,54.17
2023-04-02T13:29:27.037Z,55.13
2023-04-02T13:31:56.863Z,54.27
2023-04-02T13:34:23.853Z,54.54
2023-04-02T13:36:50.398Z,52.58
2023-04-02T13:39:16.952Z,53.42
2023-04-02T13:41:45.931Z,54.77
2023-04-02T13:44:30.060Z,53.23
2023-04-02T13:46:57.093Z,53.27
2023-04-02T13:49:24.683Z,54.43
2023-04-02T13:51:53.735Z,51.74
2023-04-02T13:54:37.279Z,51.92
2023-04-02T13:57:03.773Z,51.16
2023-04-02T13:59:30.316Z,50.64
2023-04-02T14:02:03.920Z,50.49
2023-04-02T14:04:36.491Z,51.12
2023-04-02T14:07:12.100Z,49.98
2023-04-02T14:09:53.878Z,50.29
2023-04-02T14:12:56.682Z,51.11
2023-04-02T14:15:36.019Z,47.72
2023-04-02T14:18:31.917Z,48.13
2023-04-02T14:21:17.163Z,46.73
2023-04-02T14:24:04.778Z,46.44
2023-04-02T14:26:39.537Z,46.17
2023-04-02T14:29:10.881Z,46.88
2023-04-02T14:32:05.141Z,47.83
2023-04-02T14:35:00.373Z,48.47
2023-04-02T14:37:39.286Z,47.69
2023-04-02T14:40:39.698Z,48.73
2023-04-02T14:43:30.122Z,48.46
2023-04-02T14:46:00.158Z,46.22
2023-04-02T14:48:52.013Z,46.82
2023-04-02T14:51:37.076Z,47.64
2023-04-02T14:54:13.097Z,46.70
2023-04-02T14:56:47.264Z,45.93
2023-04-02T14:59:19.545Z,44.95
2023-04-02T15:01:49.295Z,46.18
2023-04-02T15:04:37.255Z,44.74
2023-04-02T15:07:13.994Z,44.59
2023-04-02T15:09:53.614Z,45.05
2023-04-02T15:12:21.698Z,43.71
2023-04-02T15:14:55.280Z,43.03
2023-04-02T15:17:21.861Z,40.92
2023-04-02T15:19:51.487Z,40.95
2023-04-02T15:22:33.015Z,42.54
2023-04-02T15:25:16.952Z,43.74
2023-04-02T15:28:33.052Z,43.96
2023-04-02T15:31:03.632Z,45.61
2023-04-02T15:34:08.014Z,45.67
2023-04-02T15:36:55.168Z,46.91
2023-04-02T15:39:37.027Z,46.10
2023-04-02T15:42:23.767Z,45.62
2023-04-02T15:45:12.093Z,47.13
2023-04-02T15:47:46.594Z,46.93
2023-04-02T15:50:35.193Z,47.52
2023-04-02T15:53:40.496Z,48.44
2023-04-02T15:56:39.879Z,46.83
2023-04-02T15:59:28.206Z,47.96
2023-04-02T16:02:12.996Z,47.55
2023-04-02T16:05:01.238Z,48.96
2023-04-02T16:07:49.521Z,48.70
2023-04-02T16:10:41.937Z,49.37
2023-04-02T16:13:28.335Z,48.16
2023-04-02T16:16:14.434Z,48.49
2023-04-02T16:19:06.301Z,48.08
2023-04-02T16:22:10.790Z,47.73
2023-04-02T16:24:37.192Z,49.38
2023-04-02T16:27:14.923Z,49.01
2023-04-02T16:29:55.834Z,49.86
2023-04-02T16:32:43.284Z,47.63
2023-04-02T16:35:43.104Z,45.75
2023-04-02T16:38:34.817Z,44.90
2023-04-02T16:41:28.570Z,43.26
2023-04-02T16:44:20.016Z,40.18
2023-04-02T16:47:19.384Z,40.17
2023-04-02T16:50:07.246Z,38.09
2023-04-02T16:52:51.107Z,38.55
2023-04-02T16:55:35.844Z,38.01
2023-04-02T16:58:20.384Z,35.17
2023-04-02T17:01:00.982Z,35.41
2023-04-02T17:03:58.381Z,36.53
2023-04-02T17:06:57.208Z,36.19
2023-04-02T17:09:26.572Z,35.57
2023-04-02T17:12:04.379Z,37.28
2023-04-02T17:14:34.665Z,37.06
2023-04-02T17:17:02.315Z,38.94
2023-04-02T17:19:30.316Z,40.55
2023-04-02T17:22:01.177Z,42.95
2023-04-02T17:24:41.364Z,44.31
2023-04-02T17:27:32.497Z,45.40
2023-04-02T17:30:04.255Z,46.65
2023-04-02T17:32:33.171Z,47.18
2023-04-02T17:35:15.742Z,47.86
2023-04-02T17:37:52.417Z,48.79
2023-04-02T17:40:45.062Z,49.34
2023-04-02T17:43:11.467Z,49.80
2023-04-02T17:45:51.418Z,50.85
2023-04-02T17:48:26.096Z,51.11
2023-04-02T17:51:23.159Z,51.71
2023-04-02T17:54:09.409Z,52.37
2023-04-02T17:56:38.879Z,52.74
2023-04-02T17:59:14.336Z,53.29
2023-04-02T18:01:50.678Z,53.88
2023-04-02T18:04:40.466Z,54.10
2023-04-02T18:07:35.231Z,54.35
2023-04-02T18:10:15.288Z,54.99
2023-04-02T18:12:59.826Z,55.21
2023-04-02T18:15:47.223Z,55.86
2023-04-02T18:18:45.848Z,56.50
2023-04-02T18:21:24.080Z,56.49
2023-04-02T18:23:54.288Z,56.88
2023-04-02T18:26:44.097Z,57.33
2023-04-02T18:29:45.955Z,57.61
2023-04-02T18:32:24.758Z,57.93
2023-04-02T18:35:17.191Z,58.44
2023-04-02T18:38:21.450Z,58.50
2023-04-02T18:41:02.606Z,59.05
2023-04-02T18:44:06.135Z,59.50
2023-04-02T18:46:39.951Z,59.83
2023-04-02T18:49:06.404Z,59.92
2023-04-02T18:51:38.420Z,60.19
2023-04-02T18:54:20.295Z,60.68
2023-04-02T18:56:46.853Z,61.10
2023-04-02T18:59:37.942Z,61.39
2023-04-02T19:02:44.316Z,61.65
2023-04-02T19:05:39.085Z,61.88
2023-04-02T19:08:40.226Z,62.23
2023-04-02T19:11:13.359Z,62.10
2023-04-02T19:13:39.820Z,62.29
2023-04-02T19:16:34.129Z,62.92
2023-04-02T19:19:23.702Z,62.77
2023-04-02T19:21:59.109Z,62.91
2023-04-02T19:24:39.512Z,63.36
2023-04-02T19:27:24.199Z,63.51
2023-04-02T19:30:15.399Z,63.77
2023-04-02T19:33:16.057Z,64.24
2023-04-02T19:35:48.145Z,64.48
2023-04-02T19:38:22.810Z,64.10
2023-04-02T19:41:00.879Z,64.53
2023-04-02T19:43:27.461Z,64.88
2023-04-02T19:45:54.640Z,65.10
2023-04-02T19:48:25.055Z,65.17
2023-04-02T19:50:51.656Z,65.73
2023-04-02T19:53:18.472Z,66.28
2023-04-02T19:55:45.663Z,66.47
2023-04-02T19:58:26.000Z,66.55
2023-04-02T20:00:52.440Z,66.88
2023-04-02T20:03:19.016Z,67.45
2023-04-02T20:05:46.022Z,67.48
2023-04-02T20:08:12.802Z,67.85
2023-04-02T20:10:39.425Z,68.34
2023-04-02T20:13:05.936Z,68.53
2023-04-02T20:15:32.469Z,68.37
2023-04-02T20:17:59.000Z,68.44
2023-04-02T20:20:25.578Z,68.54
2023-04-02T20:22:51.962Z,68.43
2023-04-02T20:25:21.331Z,68.75
2023-04-02T20:27:47.801Z,68.72
2023-04-02T20:30:14.319Z,68.41
2023-04-02T20:32:41.376Z,68.73
2023-04-02T20:35:08.520Z,69.00
2023-04-02T20:37:35.101Z,69.05
2023-04-02T20:40:01.953Z,68.98
2023-04-02T20:42:28.612Z,68.83
2023-04-02T20:44:55.421Z,69.35
2023-04-02T20:47:22.102Z,69.40
2023-04-02T20:49:50.275Z,69.13
2023-04-02T20:52:16.726Z,69.40
2023-04-02T20:54:43.491Z,69.42
2023-04-02T20:57:09.889Z,69.61
2023-04-02T20:59:36.308Z,69.55
2023-04-02T21:02:02.709Z,69.30
2023-04-02T21:04:29.139Z,69.52
2023-04-02T21:06:57.079Z,69.84
2023-04-02T21:09:23.958Z,69.79
2023-04-02T21:11:50.571Z,69.78
2023-04-02T21:14:17.995Z,69.96
2023-04-02T21:16:44.994Z,70.32
2023-04-02T21:19:11.493Z,70.14
2023-04-02T21:21:40.381Z,70.34
2023-04-02T21:24:09.296Z,70.38
2023-04-02T21:26:38.380Z,70.47
2023-04-02T21:29:06.243Z,70.42
2023-04-02T21:31:37.977Z,70.64
2023-04-02T21:34:06.074Z,70.25
2023-04-02T21:36:39.552Z,70.34
2023-04-02T21:39:17.270Z,70.32
2023-04-02T21:41:46.467Z,70.49
2023-04-02T21:44:14.735Z,70.16
2023-04-02T21:46:42.648Z,70.16
2023-04-02T21:49:11.329Z,70.63
2023-04-02T21:51:40.111Z,70.25
2023-04-02T21:54:06.728Z,70.15
2023-04-02T21:56:36.425Z,70.71
2023-04-02T21:59:04.700Z,70.23
2023-04-02T22:01:33.560Z,70.40
2023-04-02T22:04:02.239Z,70.35
2023-04-02T22:06:30.942Z,70.27
2023-04-02T22:09:02.520Z,70.60
2023-04-02T22:11:35.657Z,70.35
2023-04-02T22:14:03.554Z,70.51
2023-04-02T22:16:32.252Z,70.79
2023-04-02T22:19:01.912Z,70.83
2023-04-02T22:21:30.442Z,70.77
2023-04-02T22:23:59.557Z,70.75
2023-04-02T22:26:27.395Z,70.82
2023-04-02T22:28:53.889Z,71.04
2023-04-02T22:31:23.485Z,71.14
2023-04-02T22:33:51.786Z,71.28
2023-04-02T22:36:20.133Z,71.33
2023-04-02T22:38:46.624Z,71.47
2023-04-02T22:41:14.037Z,71.64
2023-04-02T22:43:42.805Z,71.90
2023-04-02T22:46:12.286Z,71.72
2023-04-02T22:48:41.657Z,72.12
2023-04-02T22:51:10.427Z,71.94
2023-04-02T22:53:38.598Z,72.12
2023-04-02T22:56:13.306Z,72.00
2023-04-02T22:58:40.521Z,72.06
2023-04-02T23:01:19.342Z,72.27
2023-04-02T23:03:45.890Z,72.25
2023-04-02T23:06:15.025Z,72.38
2023-04-02T23:08:41.489Z,72.62
2023-04-02T23:11:11.052Z,72.59
2023-04-02T23:13:38.120Z,72.68
2023-04-02T23:16:07.535Z,72.90
2023-04-02T23:18:38.002Z,72.86
2023-04-02T23:21:05.733Z,73.13
2023-04-02T23:23:33.153Z,72.98
2023-04-02T23:26:14.134Z,73.24
2023-04-02T23:28:40.837Z,73.15
2023-04-02T23:31:11.001Z,73.01
2023-04-02T23:33:37.504Z,73.23
2023-04-02T23:36:11.797Z,73.06
2023-04-02T23:38:38.218Z,73.02
2023-04-02T23:41:04.832Z,72.99
2023-04-02T23:43:31.570Z,72.91
2023-04-02T23:45:58.214Z,72.85
2023-04-02T23:48:24.813Z,72.99
2023-04-02T23:50:51.335Z,73.07
2023-04-02T23:53:18.728Z,72.91
2023-04-02T23:55:45.883Z,73.08
2023-04-02T23:58:12.420Z,73.14
